sensor_id;sensor_type;location;lat;lon;timestamp;P1;durP1;ratioP1;P2;durP2;ratioP2
39994;SDS011;25686;51.908;10.418;2023-05-21T00:01:36;23.92;;;16.48;;
39994;SDS011;25686;51.908;10.418;2023-05-21T00:03:38;21.05;;;15.52;;
39994;SDS011;25686;51.908;10.418;2023-05-21T00:05:40;21.95;;;14.90;;
39994;SDS011;25686;51.908;10.418;2023-05-21T00:07:42;20.05;;;14.77;;
39994;SDS011;25686;51.908;10.418;2023-05-21T00:09:43;21.27;;;15.35;;
39994;SDS011;25686;51.908;10.418;2023-05-21T00:11:44;22.40;;;15.23;;
39994;SDS011;25686;51.908;10.418;2023-05-21T00:13:45;21.67;;;14.93;;
39994;SDS011;25686;51.908;10.418;2023-05-21T00:15:46;22.27;;;16.10;;
39994;SDS011;25686;51.908;10.418;2023-05-21T00:17:47;19.92;;;15.60;;
39994;SDS011;25686;51.908;10.418;2023-05-21T00:19:48;23.63;;;15.07;;
39994;SDS011;25686;51.908;10.418;2023-05-21T00:21:49;23.75;;;16.02;;
39994;SDS011;25686;51.908;10.418;2023-05-21T00:23:50;21.30;;;16.05;;
39994;SDS011;25686;51.908;10.418;2023-05-21T00:25:53;26.33;;;16.73;;
39994;SDS011;25686;51.908;10.418;2023-05-21T00:27:54;22.23;;;16.42;;
39994;SDS011;25686;51.908;10.418;2023-05-21T00:29:55;24.10;;;17.02;;
39994;SDS011;25686;51.908;10.418;2023-05-21T00:31:56;21.25;;;16.25;;
39994;SDS011;25686;51.908;10.418;2023-05-21T00:33:57;22.48;;;16.50;;
39994;SDS011;25686;51.908;10.418;2023-05-21T00:35:58;20.42;;;16.00;;
39994;SDS011;25686;51.908;10.418;2023-05-21T00:37:59;27.33;;;17.33;;
39994;SDS011;25686;51.908;10.418;2023-05-21T00:40:00;22.20;;;16.42;;
39994;SDS011;25686;51.908;10.418;2023-05-21T00:42:03;30.75;;;18.25;;
39994;SDS011;25686;51.908;10.418;2023-05-21T00:44:05;23.40;;;17.92;;
39994;SDS011;25686;51.908;10.418;2023-05-21T00:46:06;23.58;;;17.15;;
39994;SDS011;25686;51.908;10.418;2023-05-21T00:48:07;26.25;;;17.13;;
39994;SDS011;25686;51.908;10.418;2023-05-21T00:50:09;23.80;;;16.40;;
39994;SDS011;25686;51.908;10.418;2023-05-21T00:52:10;27.13;;;17.20;;
39994;SDS011;25686;51.908;10.418;2023-05-21T00:54:11;27.30;;;17.95;;
39994;SDS011;25686;51.908;10.418;2023-05-21T00:56:12;22.45;;;16.95;;
39994;SDS011;25686;51.908;10.418;2023-05-21T00:58:13;24.33;;;17.75;;
39994;SDS011;25686;51.908;10.418;2023-05-21T01:00:16;25.00;;;18.02;;
39994;SDS011;25686;51.908;10.418;2023-05-21T01:02:17;29.10;;;18.23;;
39994;SDS011;25686;51.908;10.418;2023-05-21T01:04:18;25.02;;;17.40;;
39994;SDS011;25686;51.908;10.418;2023-05-21T01:06:19;27.10;;;18.38;;
39994;SDS011;25686;51.908;10.418;2023-05-21T01:08:20;23.98;;;17.50;;
39994;SDS011;25686;51.908;10.418;2023-05-21T01:10:21;24.13;;;17.85;;
39994;SDS011;25686;51.908;10.418;2023-05-21T01:12:22;27.95;;;18.23;;
39994;SDS011;25686;51.908;10.418;2023-05-21T01:14:23;23.55;;;17.10;;
39994;SDS011;25686;51.908;10.418;2023-05-21T01:16:25;23.90;;;18.05;;
39994;SDS011;25686;51.908;10.418;2023-05-21T01:18:26;27.42;;;18.05;;
39994;SDS011;25686;51.908;10.418;2023-05-21T01:20:27;25.08;;;18.10;;
39994;SDS011;25686;51.908;10.418;2023-05-21T01:22:30;24.63;;;17.25;;
39994;SDS011;25686;51.908;10.418;2023-05-21T01:24:32;26.38;;;17.65;;
39994;SDS011;25686;51.908;10.418;2023-05-21T01:26:33;24.35;;;17.95;;
39994;SDS011;25686;51.908;10.418;2023-05-21T01:28:37;21.73;;;17.58;;
39994;SDS011;25686;51.908;10.418;2023-05-21T01:30:38;26.05;;;18.00;;
39994;SDS011;25686;51.908;10.418;2023-05-21T01:35:00;29.55;;;17.98;;
39994;SDS011;25686;51.908;10.418;2023-05-21T01:37:07;24.50;;;17.20;;
39994;SDS011;25686;51.908;10.418;2023-05-21T01:39:15;26.02;;;16.65;;
39994;SDS011;25686;51.908;10.418;2023-05-21T01:41:17;23.30;;;17.75;;
39994;SDS011;25686;51.908;10.418;2023-05-21T01:43:19;25.98;;;17.20;;
39994;SDS011;25686;51.908;10.418;2023-05-21T01:45:21;26.98;;;17.00;;
39994;SDS011;25686;51.908;10.418;2023-05-21T01:47:23;25.77;;;18.63;;
39994;SDS011;25686;51.908;10.418;2023-05-21T01:49:26;28.15;;;17.55;;
39994;SDS011;25686;51.908;10.418;2023-05-21T01:51:28;28.13;;;19.77;;
39994;SDS011;25686;51.908;10.418;2023-05-21T01:53:29;29.35;;;19.15;;
39994;SDS011;25686;51.908;10.418;2023-05-21T01:55:31;28.70;;;19.48;;
39994;SDS011;25686;51.908;10.418;2023-05-21T01:57:32;28.52;;;18.83;;
39994;SDS011;25686;51.908;10.418;2023-05-21T01:59:33;25.75;;;19.45;;
39994;SDS011;25686;51.908;10.418;2023-05-21T02:01:34;26.40;;;18.38;;
39994;SDS011;25686;51.908;10.418;2023-05-21T02:03:35;27.75;;;18.98;;
39994;SDS011;25686;51.908;10.418;2023-05-21T02:05:37;29.35;;;18.88;;
39994;SDS011;25686;51.908;10.418;2023-05-21T02:07:38;28.23;;;19.30;;
39994;SDS011;25686;51.908;10.418;2023-05-21T02:09:39;32.60;;;20.88;;
39994;SDS011;25686;51.908;10.418;2023-05-21T02:11:41;26.60;;;18.58;;
39994;SDS011;25686;51.908;10.418;2023-05-21T02:13:41;33.42;;;20.15;;
39994;SDS011;25686;51.908;10.418;2023-05-21T02:15:45;27.52;;;19.17;;
39994;SDS011;25686;51.908;10.418;2023-05-21T02:17:46;26.70;;;19.70;;
39994;SDS011;25686;51.908;10.418;2023-05-21T02:19:50;27.48;;;18.25;;
39994;SDS011;25686;51.908;10.418;2023-05-21T02:21:51;30.70;;;20.95;;
39994;SDS011;25686;51.908;10.418;2023-05-21T02:23:52;27.90;;;19.55;;
39994;SDS011;25686;51.908;10.418;2023-05-21T02:25:53;31.23;;;20.95;;
39994;SDS011;25686;51.908;10.418;2023-05-21T02:27:54;32.85;;;22.50;;
39994;SDS011;25686;51.908;10.418;2023-05-21T02:29:55;31.60;;;22.23;;
39994;SDS011;25686;51.908;10.418;2023-05-21T02:31:56;31.95;;;21.70;;
39994;SDS011;25686;51.908;10.418;2023-05-21T02:33:57;34.05;;;21.25;;
39994;SDS011;25686;51.908;10.418;2023-05-21T02:35:58;31.83;;;22.17;;
39994;SDS011;25686;51.908;10.418;2023-05-21T02:37:59;32.10;;;21.30;;
39994;SDS011;25686;51.908;10.418;2023-05-21T02:40:02;30.98;;;20.85;;
39994;SDS011;25686;51.908;10.418;2023-05-21T02:42:04;27.27;;;18.40;;
39994;SDS011;25686;51.908;10.418;2023-05-21T02:44:05;30.20;;;18.85;;
39994;SDS011;25686;51.908;10.418;2023-05-21T02:46:06;25.25;;;18.67;;
39994;SDS011;25686;51.908;10.418;2023-05-21T02:48:07;27.55;;;19.83;;
39994;SDS011;25686;51.908;10.418;2023-05-21T02:50:08;29.05;;;19.88;;
39994;SDS011;25686;51.908;10.418;2023-05-21T02:52:09;28.00;;;19.48;;
39994;SDS011;25686;51.908;10.418;2023-05-21T02:54:10;25.60;;;18.63;;
39994;SDS011;25686;51.908;10.418;2023-05-21T02:56:11;27.63;;;18.55;;
39994;SDS011;25686;51.908;10.418;2023-05-21T02:58:12;28.33;;;18.50;;
39994;SDS011;25686;51.908;10.418;2023-05-21T03:00:14;25.55;;;18.17;;
39994;SDS011;25686;51.908;10.418;2023-05-21T03:02:15;25.52;;;18.25;;
39994;SDS011;25686;51.908;10.418;2023-05-21T03:04:16;27.48;;;18.05;;
39994;SDS011;25686;51.908;10.418;2023-05-21T03:06:17;23.15;;;17.10;;
39994;SDS011;25686;51.908;10.418;2023-05-21T03:08:18;23.77;;;17.45;;
39994;SDS011;25686;51.908;10.418;2023-05-21T03:10:20;23.25;;;16.88;;
39994;SDS011;25686;51.908;10.418;2023-05-21T03:12:21;25.02;;;18.15;;
39994;SDS011;25686;51.908;10.418;2023-05-21T03:14:22;25.20;;;18.05;;
39994;SDS011;25686;51.908;10.418;2023-05-21T03:16:23;26.73;;;17.63;;
39994;SDS011;25686;51.908;10.418;2023-05-21T03:18:24;22.95;;;17.20;;
39994;SDS011;25686;51.908;10.418;2023-05-21T03:20:25;29.02;;;18.08;;
39994;SDS011;25686;51.908;10.418;2023-05-21T03:22:27;27.52;;;18.20;;
39994;SDS011;25686;51.908;10.418;2023-05-21T03:24:28;30.65;;;19.05;;
39994;SDS011;25686;51.908;10.418;2023-05-21T03:26:29;29.30;;;20.00;;
39994;SDS011;25686;51.908;10.418;2023-05-21T03:28:30;28.27;;;18.98;;
39994;SDS011;25686;51.908;10.418;2023-05-21T03:30:31;25.50;;;19.30;;
39994;SDS011;25686;51.908;10.418;2023-05-21T03:32:32;26.13;;;18.25;;
39994;SDS011;25686;51.908;10.418;2023-05-21T03:34:36;28.17;;;18.40;;
39994;SDS011;25686;51.908;10.418;2023-05-21T03:36:37;24.70;;;18.58;;
39994;SDS011;25686;51.908;10.418;2023-05-21T03:38:38;27.05;;;19.42;;
39994;SDS011;25686;51.908;10.418;2023-05-21T03:40:39;28.10;;;19.45;;
39994;SDS011;25686;51.908;10.418;2023-05-21T03:42:40;25.92;;;18.92;;
39994;SDS011;25686;51.908;10.418;2023-05-21T03:44:41;24.85;;;18.42;;
39994;SDS011;25686;51.908;10.418;2023-05-21T03:46:42;25.23;;;18.08;;
39994;SDS011;25686;51.908;10.418;2023-05-21T03:48:44;27.85;;;19.27;;
39994;SDS011;25686;51.908;10.418;2023-05-21T03:50:45;28.33;;;18.55;;
39994;SDS011;25686;51.908;10.418;2023-05-21T03:52:46;25.95;;;17.70;;
39994;SDS011;25686;51.908;10.418;2023-05-21T03:54:47;27.10;;;18.80;;
39994;SDS011;25686;51.908;10.418;2023-05-21T03:56:48;28.75;;;19.15;;
39994;SDS011;25686;51.908;10.418;2023-05-21T03:58:49;28.10;;;18.60;;
39994;SDS011;25686;51.908;10.418;2023-05-21T04:00:50;26.67;;;18.98;;
39994;SDS011;25686;51.908;10.418;2023-05-21T04:02:51;29.55;;;19.00;;
39994;SDS011;25686;51.908;10.418;2023-05-21T04:04:52;29.58;;;19.80;;
39994;SDS011;25686;51.908;10.418;2023-05-21T04:06:54;30.08;;;19.98;;
39994;SDS011;25686;51.908;10.418;2023-05-21T04:08:55;32.25;;;21.05;;
39994;SDS011;25686;51.908;10.418;2023-05-21T04:10:56;32.33;;;20.65;;
39994;SDS011;25686;51.908;10.418;2023-05-21T04:12:57;32.80;;;20.63;;
39994;SDS011;25686;51.908;10.418;2023-05-21T04:14:58;28.85;;;21.40;;
39994;SDS011;25686;51.908;10.418;2023-05-21T04:16:59;34.05;;;21.70;;
39994;SDS011;25686;51.908;10.418;2023-05-21T04:19:03;35.08;;;21.13;;
39994;SDS011;25686;51.908;10.418;2023-05-21T04:21:04;30.55;;;20.55;;
39994;SDS011;25686;51.908;10.418;2023-05-21T04:23:05;28.92;;;20.40;;
39994;SDS011;25686;51.908;10.418;2023-05-21T04:25:06;30.60;;;21.50;;
39994;SDS011;25686;51.908;10.418;2023-05-21T04:27:07;29.02;;;20.38;;
39994;SDS011;25686;51.908;10.418;2023-05-21T04:29:08;31.80;;;21.92;;
39994;SDS011;25686;51.908;10.418;2023-05-21T04:31:10;28.60;;;20.23;;
39994;SDS011;25686;51.908;10.418;2023-05-21T04:33:12;29.58;;;19.95;;
39994;SDS011;25686;51.908;10.418;2023-05-21T04:35:16;34.78;;;20.92;;
39994;SDS011;25686;51.908;10.418;2023-05-21T04:37:17;29.55;;;20.75;;
39994;SDS011;25686;51.908;10.418;2023-05-21T04:39:18;30.10;;;21.15;;
39994;SDS011;25686;51.908;10.418;2023-05-21T04:41:19;29.05;;;20.73;;
39994;SDS011;25686;51.908;10.418;2023-05-21T04:43:20;28.63;;;20.77;;
39994;SDS011;25686;51.908;10.418;2023-05-21T04:45:25;29.05;;;20.60;;
39994;SDS011;25686;51.908;10.418;2023-05-21T04:47:25;29.83;;;20.42;;
39994;SDS011;25686;51.908;10.418;2023-05-21T04:49:29;27.77;;;19.45;;
39994;SDS011;25686;51.908;10.418;2023-05-21T04:51:30;27.60;;;19.42;;
39994;SDS011;25686;51.908;10.418;2023-05-21T04:53:31;27.35;;;19.73;;
39994;SDS011;25686;51.908;10.418;2023-05-21T04:55:34;25.83;;;18.60;;
39994;SDS011;25686;51.908;10.418;2023-05-21T04:57:39;28.98;;;18.83;;
39994;SDS011;25686;51.908;10.418;2023-05-21T04:59:40;28.58;;;19.05;;
39994;SDS011;25686;51.908;10.418;2023-05-21T05:01:42;23.38;;;17.73;;
39994;SDS011;25686;51.908;10.418;2023-05-21T05:03:44;25.25;;;18.50;;
39994;SDS011;25686;51.908;10.418;2023-05-21T05:05:45;24.90;;;18.08;;
39994;SDS011;25686;51.908;10.418;2023-05-21T05:07:46;26.85;;;18.85;;
39994;SDS011;25686;51.908;10.418;2023-05-21T05:09:47;28.60;;;20.58;;
39994;SDS011;25686;51.908;10.418;2023-05-21T05:11:48;33.97;;;22.70;;
39994;SDS011;25686;51.908;10.418;2023-05-21T05:13:49;29.95;;;22.60;;
39994;SDS011;25686;51.908;10.418;2023-05-21T05:15:50;29.85;;;20.63;;
39994;SDS011;25686;51.908;10.418;2023-05-21T05:17:53;29.50;;;21.85;;
39994;SDS011;25686;51.908;10.418;2023-05-21T05:19:55;29.67;;;21.85;;
39994;SDS011;25686;51.908;10.418;2023-05-21T05:21:56;33.85;;;23.48;;
39994;SDS011;25686;51.908;10.418;2023-05-21T05:23:57;30.10;;;22.90;;
39994;SDS011;25686;51.908;10.418;2023-05-21T05:25:58;34.90;;;22.75;;
39994;SDS011;25686;51.908;10.418;2023-05-21T05:27:59;33.13;;;23.40;;
39994;SDS011;25686;51.908;10.418;2023-05-21T05:30:00;34.63;;;23.77;;
39994;SDS011;25686;51.908;10.418;2023-05-21T05:32:01;35.42;;;24.08;;
39994;SDS011;25686;51.908;10.418;2023-05-21T05:34:02;34.78;;;23.75;;
39994;SDS011;25686;51.908;10.418;2023-05-21T05:36:03;35.17;;;23.48;;
39994;SDS011;25686;51.908;10.418;2023-05-21T05:38:04;35.55;;;23.25;;
39994;SDS011;25686;51.908;10.418;2023-05-21T05:40:07;38.72;;;26.55;;
39994;SDS011;25686;51.908;10.418;2023-05-21T05:42:08;37.75;;;26.30;;
39994;SDS011;25686;51.908;10.418;2023-05-21T05:44:09;40.67;;;27.08;;
39994;SDS011;25686;51.908;10.418;2023-05-21T05:46:10;37.97;;;25.95;;
39994;SDS011;25686;51.908;10.418;2023-05-21T05:48:11;40.70;;;24.70;;
39994;SDS011;25686;51.908;10.418;2023-05-21T05:50:12;39.03;;;25.77;;
39994;SDS011;25686;51.908;10.418;2023-05-21T05:52:13;35.38;;;25.58;;
39994;SDS011;25686;51.908;10.418;2023-05-21T05:54:15;39.80;;;26.70;;
39994;SDS011;25686;51.908;10.418;2023-05-21T05:56:15;37.60;;;26.30;;
39994;SDS011;25686;51.908;10.418;2023-05-21T05:58:16;35.92;;;26.10;;
39994;SDS011;25686;51.908;10.418;2023-05-21T06:00:17;34.70;;;25.42;;
39994;SDS011;25686;51.908;10.418;2023-05-21T06:02:18;35.95;;;25.67;;
39994;SDS011;25686;51.908;10.418;2023-05-21T06:04:19;34.63;;;25.10;;
39994;SDS011;25686;51.908;10.418;2023-05-21T06:06:20;36.80;;;25.10;;
39994;SDS011;25686;51.908;10.418;2023-05-21T06:08:21;35.20;;;25.83;;
39994;SDS011;25686;51.908;10.418;2023-05-21T06:10:23;33.72;;;25.90;;
39994;SDS011;25686;51.908;10.418;2023-05-21T06:12:24;37.00;;;27.40;;
39994;SDS011;25686;51.908;10.418;2023-05-21T06:14:25;31.77;;;23.90;;
39994;SDS011;25686;51.908;10.418;2023-05-21T06:16:27;33.28;;;24.45;;
39994;SDS011;25686;51.908;10.418;2023-05-21T06:18:30;32.08;;;24.23;;
39994;SDS011;25686;51.908;10.418;2023-05-21T06:20:31;38.80;;;24.38;;
39994;SDS011;25686;51.908;10.418;2023-05-21T06:22:32;33.38;;;24.83;;
39994;SDS011;25686;51.908;10.418;2023-05-21T06:24:33;32.60;;;24.02;;
39994;SDS011;25686;51.908;10.418;2023-05-21T06:26:33;31.98;;;24.08;;
39994;SDS011;25686;51.908;10.418;2023-05-21T06:28:35;34.05;;;24.17;;
39994;SDS011;25686;51.908;10.418;2023-05-21T06:30:36;31.50;;;23.83;;
39994;SDS011;25686;51.908;10.418;2023-05-21T06:32:37;28.40;;;23.00;;
39994;SDS011;25686;51.908;10.418;2023-05-21T06:34:38;34.10;;;25.08;;
39994;SDS011;25686;51.908;10.418;2023-05-21T06:36:38;33.88;;;24.83;;
39994;SDS011;25686;51.908;10.418;2023-05-21T06:38:40;34.22;;;24.60;;
39994;SDS011;25686;51.908;10.418;2023-05-21T06:40:41;32.42;;;23.75;;
39994;SDS011;25686;51.908;10.418;2023-05-21T06:42:46;34.42;;;23.90;;
39994;SDS011;25686;51.908;10.418;2023-05-21T06:44:47;33.47;;;24.80;;
39994;SDS011;25686;51.908;10.418;2023-05-21T06:46:48;31.10;;;23.17;;
39994;SDS011;25686;51.908;10.418;2023-05-21T06:48:49;30.92;;;24.77;;
39994;SDS011;25686;51.908;10.418;2023-05-21T06:50:50;34.70;;;24.77;;
39994;SDS011;25686;51.908;10.418;2023-05-21T06:52:51;35.78;;;25.70;;
39994;SDS011;25686;51.908;10.418;2023-05-21T06:54:52;31.55;;;23.98;;
39994;SDS011;25686;51.908;10.418;2023-05-21T06:56:53;32.13;;;24.42;;
39994;SDS011;25686;51.908;10.418;2023-05-21T06:58:54;32.58;;;24.52;;
39994;SDS011;25686;51.908;10.418;2023-05-21T07:00:55;32.55;;;24.98;;
39994;SDS011;25686;51.908;10.418;2023-05-21T07:02:56;36.20;;;24.48;;
39994;SDS011;25686;51.908;10.418;2023-05-21T07:04:57;33.58;;;24.63;;
39994;SDS011;25686;51.908;10.418;2023-05-21T07:06:58;35.95;;;25.55;;
39994;SDS011;25686;51.908;10.418;2023-05-21T07:09:00;35.60;;;25.13;;
39994;SDS011;25686;51.908;10.418;2023-05-21T07:11:01;33.42;;;24.75;;
39994;SDS011;25686;51.908;10.418;2023-05-21T07:13:02;34.55;;;25.42;;
39994;SDS011;25686;51.908;10.418;2023-05-21T07:15:03;33.15;;;24.70;;
39994;SDS011;25686;51.908;10.418;2023-05-21T07:17:04;31.40;;;25.80;;
39994;SDS011;25686;51.908;10.418;2023-05-21T07:19:05;35.83;;;25.45;;
39994;SDS011;25686;51.908;10.418;2023-05-21T07:21:06;33.33;;;23.45;;
39994;SDS011;25686;51.908;10.418;2023-05-21T07:23:07;28.25;;;23.38;;
39994;SDS011;25686;51.908;10.418;2023-05-21T07:25:08;32.42;;;25.85;;
39994;SDS011;25686;51.908;10.418;2023-05-21T07:27:09;35.97;;;25.98;;
39994;SDS011;25686;51.908;10.418;2023-05-21T07:29:10;30.40;;;23.08;;
39994;SDS011;25686;51.908;10.418;2023-05-21T07:31:11;31.30;;;23.42;;
39994;SDS011;25686;51.908;10.418;2023-05-21T07:33:12;36.10;;;23.40;;
39994;SDS011;25686;51.908;10.418;2023-05-21T07:35:13;28.60;;;23.42;;
39994;SDS011;25686;51.908;10.418;2023-05-21T07:37:14;31.75;;;23.13;;
39994;SDS011;25686;51.908;10.418;2023-05-21T07:39:15;29.08;;;22.10;;
39994;SDS011;25686;51.908;10.418;2023-05-21T07:41:16;27.27;;;21.85;;
39994;SDS011;25686;51.908;10.418;2023-05-21T07:43:17;25.67;;;21.83;;
39994;SDS011;25686;51.908;10.418;2023-05-21T07:45:18;26.17;;;21.77;;
39994;SDS011;25686;51.908;10.418;2023-05-21T07:47:19;29.55;;;22.58;;
39994;SDS011;25686;51.908;10.418;2023-05-21T07:49:22;27.02;;;21.40;;
39994;SDS011;25686;51.908;10.418;2023-05-21T07:51:23;28.48;;;22.83;;
39994;SDS011;25686;51.908;10.418;2023-05-21T07:53:24;28.55;;;22.70;;
39994;SDS011;25686;51.908;10.418;2023-05-21T07:55:25;28.08;;;22.90;;
39994;SDS011;25686;51.908;10.418;2023-05-21T07:57:26;28.38;;;22.13;;
39994;SDS011;25686;51.908;10.418;2023-05-21T07:59:27;28.10;;;21.05;;
39994;SDS011;25686;51.908;10.418;2023-05-21T08:01:28;28.60;;;22.90;;
39994;SDS011;25686;51.908;10.418;2023-05-21T08:03:29;27.80;;;21.52;;
39994;SDS011;25686;51.908;10.418;2023-05-21T08:05:31;26.60;;;21.08;;
39994;SDS011;25686;51.908;10.418;2023-05-21T08:07:32;25.40;;;20.42;;
39994;SDS011;25686;51.908;10.418;2023-05-21T08:09:33;26.13;;;21.05;;
39994;SDS011;25686;51.908;10.418;2023-05-21T08:11:34;24.85;;;20.55;;
39994;SDS011;25686;51.908;10.418;2023-05-21T08:13:34;24.38;;;19.90;;
39994;SDS011;25686;51.908;10.418;2023-05-21T08:15:36;27.15;;;22.05;;
39994;SDS011;25686;51.908;10.418;2023-05-21T08:17:36;27.52;;;21.80;;
39994;SDS011;25686;51.908;10.418;2023-05-21T08:19:37;27.33;;;21.80;;
39994;SDS011;25686;51.908;10.418;2023-05-21T08:21:39;24.92;;;20.90;;
39994;SDS011;25686;51.908;10.418;2023-05-21T08:23:40;29.08;;;22.73;;
39994;SDS011;25686;51.908;10.418;2023-05-21T08:25:41;28.40;;;22.45;;
39994;SDS011;25686;51.908;10.418;2023-05-21T08:27:42;28.33;;;22.33;;
39994;SDS011;25686;51.908;10.418;2023-05-21T08:29:43;25.02;;;21.75;;
39994;SDS011;25686;51.908;10.418;2023-05-21T08:31:43;27.33;;;22.38;;
39994;SDS011;25686;51.908;10.418;2023-05-21T08:33:51;27.73;;;21.92;;
39994;SDS011;25686;51.908;10.418;2023-05-21T08:35:52;26.40;;;21.40;;
39994;SDS011;25686;51.908;10.418;2023-05-21T08:37:53;29.88;;;20.75;;
39994;SDS011;25686;51.908;10.418;2023-05-21T08:39:54;28.33;;;20.90;;
39994;SDS011;25686;51.908;10.418;2023-05-21T08:41:56;24.73;;;21.38;;
39994;SDS011;25686;51.908;10.418;2023-05-21T08:44:01;25.33;;;20.77;;
39994;SDS011;25686;51.908;10.418;2023-05-21T08:46:02;26.30;;;20.95;;
39994;SDS011;25686;51.908;10.418;2023-05-21T08:48:03;27.15;;;22.05;;
39994;SDS011;25686;51.908;10.418;2023-05-21T08:50:14;26.98;;;22.23;;
39994;SDS011;25686;51.908;10.418;2023-05-21T08:52:18;24.85;;;21.00;;
39994;SDS011;25686;51.908;10.418;2023-05-21T08:54:21;25.63;;;20.80;;
39994;SDS011;25686;51.908;10.418;2023-05-21T08:56:22;24.65;;;21.17;;
39994;SDS011;25686;51.908;10.418;2023-05-21T08:58:23;27.40;;;21.50;;
39994;SDS011;25686;51.908;10.418;2023-05-21T09:00:24;24.17;;;19.67;;
39994;SDS011;25686;51.908;10.418;2023-05-21T09:02:25;24.52;;;20.75;;
39994;SDS011;25686;51.908;10.418;2023-05-21T09:04:26;22.55;;;20.02;;
39994;SDS011;25686;51.908;10.418;2023-05-21T09:06:27;22.42;;;19.45;;
39994;SDS011;25686;51.908;10.418;2023-05-21T09:08:34;26.92;;;20.33;;
39994;SDS011;25686;51.908;10.418;2023-05-21T09:10:35;22.38;;;19.83;;
39994;SDS011;25686;51.908;10.418;2023-05-21T09:12:38;23.98;;;20.48;;
39994;SDS011;25686;51.908;10.418;2023-05-21T09:14:39;24.83;;;20.00;;
39994;SDS011;25686;51.908;10.418;2023-05-21T09:16:40;22.48;;;19.10;;
39994;SDS011;25686;51.908;10.418;2023-05-21T09:18:41;22.80;;;18.95;;
39994;SDS011;25686;51.908;10.418;2023-05-21T09:20:42;21.88;;;19.52;;
39994;SDS011;25686;51.908;10.418;2023-05-21T09:22:45;22.80;;;19.40;;
39994;SDS011;25686;51.908;10.418;2023-05-21T09:24:46;22.27;;;19.33;;
39994;SDS011;25686;51.908;10.418;2023-05-21T09:26:47;20.98;;;18.73;;
39994;SDS011;25686;51.908;10.418;2023-05-21T09:28:49;23.70;;;19.30;;
39994;SDS011;25686;51.908;10.418;2023-05-21T09:30:51;23.35;;;19.42;;
39994;SDS011;25686;51.908;10.418;2023-05-21T09:32:54;26.60;;;18.63;;
39994;SDS011;25686;51.908;10.418;2023-05-21T09:34:56;20.45;;;18.25;;
39994;SDS011;25686;51.908;10.418;2023-05-21T09:36:57;21.73;;;19.17;;
39994;SDS011;25686;51.908;10.418;2023-05-21T09:39:00;20.23;;;18.05;;
39994;SDS011;25686;51.908;10.418;2023-05-21T09:41:05;20.77;;;18.40;;
39994;SDS011;25686;51.908;10.418;2023-05-21T09:43:06;20.80;;;18.58;;
39994;SDS011;25686;51.908;10.418;2023-05-21T09:45:10;20.65;;;17.75;;
39994;SDS011;25686;51.908;10.418;2023-05-21T09:47:11;19.75;;;17.52;;
39994;SDS011;25686;51.908;10.418;2023-05-21T09:49:21;20.77;;;18.55;;
39994;SDS011;25686;51.908;10.418;2023-05-21T09:51:23;18.92;;;16.95;;
39994;SDS011;25686;51.908;10.418;2023-05-21T09:53:24;21.55;;;17.90;;
39994;SDS011;25686;51.908;10.418;2023-05-21T09:55:28;22.83;;;18.70;;
39994;SDS011;25686;51.908;10.418;2023-05-21T09:57:30;22.40;;;18.90;;
39994;SDS011;25686;51.908;10.418;2023-05-21T09:59:34;22.02;;;18.05;;
39994;SDS011;25686;51.908;10.418;2023-05-21T10:01:35;20.02;;;17.90;;
39994;SDS011;25686;51.908;10.418;2023-05-21T10:03:37;19.70;;;17.67;;
39994;SDS011;25686;51.908;10.418;2023-05-21T10:05:39;21.95;;;18.38;;
39994;SDS011;25686;51.908;10.418;2023-05-21T10:07:49;20.83;;;17.58;;
39994;SDS011;25686;51.908;10.418;2023-05-21T10:09:53;21.13;;;17.58;;
39994;SDS011;25686;51.908;10.418;2023-05-21T10:11:57;22.83;;;18.00;;
39994;SDS011;25686;51.908;10.418;2023-05-21T10:14:14;20.10;;;18.00;;
39994;SDS011;25686;51.908;10.418;2023-05-21T10:16:18;22.83;;;19.27;;
39994;SDS011;25686;51.908;10.418;2023-05-21T10:18:20;21.25;;;17.10;;
39994;SDS011;25686;51.908;10.418;2023-05-21T10:20:21;18.77;;;16.80;;
39994;SDS011;25686;51.908;10.418;2023-05-21T10:22:25;21.92;;;18.83;;
39994;SDS011;25686;51.908;10.418;2023-05-21T10:24:27;21.00;;;17.00;;
39994;SDS011;25686;51.908;10.418;2023-05-21T10:26:28;19.42;;;17.25;;
39994;SDS011;25686;51.908;10.418;2023-05-21T10:28:29;20.08;;;17.88;;
39994;SDS011;25686;51.908;10.418;2023-05-21T10:30:30;18.77;;;16.90;;
39994;SDS011;25686;51.908;10.418;2023-05-21T10:32:32;21.90;;;17.65;;
39994;SDS011;25686;51.908;10.418;2023-05-21T10:34:33;19.17;;;16.98;;
39994;SDS011;25686;51.908;10.418;2023-05-21T10:36:34;20.30;;;18.20;;
39994;SDS011;25686;51.908;10.418;2023-05-21T10:38:36;18.55;;;16.67;;
39994;SDS011;25686;51.908;10.418;2023-05-21T10:40:38;18.67;;;16.67;;
39994;SDS011;25686;51.908;10.418;2023-05-21T10:47:17;21.35;;;17.17;;
39994;SDS011;25686;51.908;10.418;2023-05-21T10:51:28;19.85;;;17.80;;
39994;SDS011;25686;51.908;10.418;2023-05-21T10:53:54;22.30;;;17.92;;
39994;SDS011;25686;51.908;10.418;2023-05-21T10:56:13;20.17;;;18.10;;
39994;SDS011;25686;51.908;10.418;2023-05-21T11:00:23;21.23;;;18.27;;
39994;SDS011;25686;51.908;10.418;2023-05-21T11:02:25;20.60;;;18.48;;
39994;SDS011;25686;51.908;10.418;2023-05-21T11:04:26;20.17;;;17.92;;
39994;SDS011;25686;51.908;10.418;2023-05-21T11:06:28;23.13;;;18.25;;
39994;SDS011;25686;51.908;10.418;2023-05-21T11:08:30;23.33;;;20.08;;
39994;SDS011;25686;51.908;10.418;2023-05-21T11:12:34;21.60;;;19.20;;
39994;SDS011;25686;51.908;10.418;2023-05-21T11:14:37;23.38;;;20.27;;
39994;SDS011;25686;51.908;10.418;2023-05-21T11:16:42;26.60;;;19.20;;
39994;SDS011;25686;51.908;10.418;2023-05-21T11:20:49;24.70;;;20.00;;
39994;SDS011;25686;51.908;10.418;2023-05-21T11:22:50;30.52;;;22.42;;
39994;SDS011;25686;51.908;10.418;2023-05-21T11:24:52;23.95;;;20.02;;
39994;SDS011;25686;51.908;10.418;2023-05-21T11:31:22;25.30;;;20.52;;
39994;SDS011;25686;51.908;10.418;2023-05-21T11:33:24;22.58;;;18.90;;
39994;SDS011;25686;51.908;10.418;2023-05-21T11:35:26;24.40;;;20.75;;
39994;SDS011;25686;51.908;10.418;2023-05-21T11:37:27;23.33;;;19.40;;
39994;SDS011;25686;51.908;10.418;2023-05-21T11:39:29;23.35;;;19.67;;
39994;SDS011;25686;51.908;10.418;2023-05-21T11:43:59;24.55;;;20.60;;
39994;SDS011;25686;51.908;10.418;2023-05-21T11:46:00;25.70;;;20.65;;
39994;SDS011;25686;51.908;10.418;2023-05-21T11:48:01;23.85;;;21.20;;
39994;SDS011;25686;51.908;10.418;2023-05-21T11:50:03;26.75;;;20.02;;
39994;SDS011;25686;51.908;10.418;2023-05-21T11:52:04;24.33;;;20.80;;
39994;SDS011;25686;51.908;10.418;2023-05-21T11:54:07;27.63;;;22.02;;
39994;SDS011;25686;51.908;10.418;2023-05-21T11:56:08;24.73;;;21.95;;
39994;SDS011;25686;51.908;10.418;2023-05-21T11:58:11;28.42;;;20.38;;
39994;SDS011;25686;51.908;10.418;2023-05-21T12:00:14;25.00;;;20.52;;
39994;SDS011;25686;51.908;10.418;2023-05-21T12:02:16;24.42;;;20.45;;
39994;SDS011;25686;51.908;10.418;2023-05-21T12:04:17;24.75;;;19.83;;